HBA weather

Hobart International Airport
Hobart, Tasmania, Australia

Public forecast

Using degrees Celsius for public forecast. Weather courtesy of forecast.io.

Current aviation weather report (METAR) for Hobart International Airport

Retrieved 2019/11/14 20:30 UTC (0 seconds ago):

YMHB 142030Z 30018G30KT 9999 FEW048 13/M03 Q0998 RF000/0000

Aviation forecast (TAF) for Hobart International Airport

Retrieved 2019/11/14 18:36 UTC (2 hours ago):

TAF YMHB 141730Z 1418/1518 29014KT 9999 SCT040 FM150000 27018G28KT 9999 SCT035 FM150900 28014KT 9999 SCT030